<?xml version="1.0" encoding="UTF-8" standalone="no" ?>
<gpx xmlns="http://www.topografix.com/GPX/1/1" xmlns:xsi="http://www.w3.org/2001/XMLSchema-instance" xsi:schemaLocation="http://www.topografix.com/GPX/1/1 http://www.topografix.com/GPX/1/1/gpx.xsd" version="1.1" creator="VisuGPX - https://www.visugpx.com">
  <metadata>
    <name>boucle Bouzillé</name>
  </metadata>
  <trk>
    <name><![CDATA[boucle Bouzillé_1]]></name>
    <trkseg>
      <trkpt lat="47.33829" lon="-1.10974">
        <ele>79</ele>
        <time>2020-05-03T15:38:36Z</time>
      </trkpt>
      <trkpt lat="47.33793" lon="-1.10957">
        <ele>80</ele>
        <time>2020-05-03T15:38:27Z</time>
      </trkpt>
      <trkpt lat="47.3381" lon="-1.10884">
        <ele>79</ele>
        <time>2020-05-03T15:38:15Z</time>
      </trkpt>
      <trkpt lat="47.33818" lon="-1.10821">
        <ele>80</ele>
        <time>2020-05-03T15:38:05Z</time>
      </trkpt>
      <trkpt lat="47.33772" lon="-1.10814">
        <ele>81</ele>
        <time>2020-05-03T15:37:54Z</time>
      </trkpt>
      <trkpt lat="47.33778" lon="-1.10597">
        <ele>80</ele>
        <time>2020-05-03T15:37:20Z</time>
      </trkpt>
      <trkpt lat="47.33788" lon="-1.10449">
        <ele>79</ele>
        <time>2020-05-03T15:36:56Z</time>
      </trkpt>
      <trkpt lat="47.33772" lon="-1.10358">
        <ele>79</ele>
        <time>2020-05-03T15:36:41Z</time>
      </trkpt>
      <trkpt lat="47.33756" lon="-1.09987">
        <ele>78</ele>
        <time>2020-05-03T15:35:42Z</time>
      </trkpt>
      <trkpt lat="47.3385" lon="-1.09987">
        <ele>75</ele>
        <time>2020-05-03T15:35:20Z</time>
      </trkpt>
      <trkpt lat="47.33856" lon="-1.09957">
        <ele>74</ele>
        <time>2020-05-03T15:35:15Z</time>
      </trkpt>
      <trkpt lat="47.33951" lon="-1.09961">
        <ele>70</ele>
        <time>2020-05-03T15:34:53Z</time>
      </trkpt>
      <trkpt lat="47.33952" lon="-1.0987">
        <ele>70</ele>
        <time>2020-05-03T15:34:39Z</time>
      </trkpt>
      <trkpt lat="47.33969" lon="-1.09863">
        <ele>69</ele>
        <time>2020-05-03T15:34:35Z</time>
      </trkpt>
      <trkpt lat="47.33991" lon="-1.09718">
        <ele>68</ele>
        <time>2020-05-03T15:34:11Z</time>
      </trkpt>
      <trkpt lat="47.34006" lon="-1.09512">
        <ele>64</ele>
        <time>2020-05-03T15:33:38Z</time>
      </trkpt>
      <trkpt lat="47.34023" lon="-1.09408">
        <ele>63</ele>
        <time>2020-05-03T15:33:22Z</time>
      </trkpt>
      <trkpt lat="47.34129" lon="-1.09377">
        <ele>59</ele>
        <time>2020-05-03T15:32:56Z</time>
      </trkpt>
      <trkpt lat="47.34136" lon="-1.09352">
        <ele>58</ele>
        <time>2020-05-03T15:32:52Z</time>
      </trkpt>
      <trkpt lat="47.34139" lon="-1.09083">
        <ele>53</ele>
        <time>2020-05-03T15:32:09Z</time>
      </trkpt>
      <trkpt lat="47.34157" lon="-1.09111">
        <ele>53</ele>
        <time>2020-05-03T15:32:03Z</time>
      </trkpt>
      <trkpt lat="47.34209" lon="-1.09149">
        <ele>52</ele>
        <time>2020-05-03T15:31:50Z</time>
      </trkpt>
      <trkpt lat="47.34287" lon="-1.09198">
        <ele>47</ele>
        <time>2020-05-03T15:31:30Z</time>
      </trkpt>
      <trkpt lat="47.34334" lon="-1.09229">
        <ele>42</ele>
        <time>2020-05-03T15:31:18Z</time>
      </trkpt>
      <trkpt lat="47.34414" lon="-1.09259">
        <ele>38</ele>
        <time>2020-05-03T15:30:59Z</time>
      </trkpt>
      <trkpt lat="47.34462" lon="-1.09273">
        <ele>37</ele>
        <time>2020-05-03T15:30:47Z</time>
      </trkpt>
      <trkpt lat="47.3451" lon="-1.09308">
        <ele>36</ele>
        <time>2020-05-03T15:30:35Z</time>
      </trkpt>
      <trkpt lat="47.3455" lon="-1.09333">
        <ele>37</ele>
        <time>2020-05-03T15:30:25Z</time>
      </trkpt>
      <trkpt lat="47.34584" lon="-1.09368">
        <ele>36</ele>
        <time>2020-05-03T15:30:15Z</time>
      </trkpt>
      <trkpt lat="47.34621" lon="-1.09431">
        <ele>33</ele>
        <time>2020-05-03T15:30:02Z</time>
      </trkpt>
      <trkpt lat="47.34655" lon="-1.09488">
        <ele>31</ele>
        <time>2020-05-03T15:29:50Z</time>
      </trkpt>
      <trkpt lat="47.34654" lon="-1.09513">
        <ele>31</ele>
        <time>2020-05-03T15:29:46Z</time>
      </trkpt>
      <trkpt lat="47.34947" lon="-1.09571">
        <ele>25</ele>
        <time>2020-05-03T15:28:37Z</time>
      </trkpt>
      <trkpt lat="47.3506" lon="-1.09584">
        <ele>25</ele>
        <time>2020-05-03T15:28:10Z</time>
      </trkpt>
      <trkpt lat="47.35095" lon="-1.09465">
        <ele>24</ele>
        <time>2020-05-03T15:27:50Z</time>
      </trkpt>
      <trkpt lat="47.35232" lon="-1.09452">
        <ele>21</ele>
        <time>2020-05-03T15:27:18Z</time>
      </trkpt>
      <trkpt lat="47.35367" lon="-1.0941">
        <ele>16</ele>
        <time>2020-05-03T15:26:45Z</time>
      </trkpt>
      <trkpt lat="47.35373" lon="-1.09497">
        <ele>15</ele>
        <time>2020-05-03T15:26:32Z</time>
      </trkpt>
      <trkpt lat="47.35354" lon="-1.09681">
        <ele>15</ele>
        <time>2020-05-03T15:26:02Z</time>
      </trkpt>
      <trkpt lat="47.35314" lon="-1.09749">
        <ele>16</ele>
        <time>2020-05-03T15:25:48Z</time>
      </trkpt>
      <trkpt lat="47.35237" lon="-1.09952">
        <ele>19</ele>
        <time>2020-05-03T15:25:11Z</time>
      </trkpt>
      <trkpt lat="47.35176" lon="-1.10104">
        <ele>19</ele>
        <time>2020-05-03T15:24:43Z</time>
      </trkpt>
      <trkpt lat="47.35163" lon="-1.102">
        <ele>17</ele>
        <time>2020-05-03T15:24:28Z</time>
      </trkpt>
      <trkpt lat="47.35169" lon="-1.10237">
        <ele>16</ele>
        <time>2020-05-03T15:24:22Z</time>
      </trkpt>
      <trkpt lat="47.35189" lon="-1.10348">
        <ele>16</ele>
        <time>2020-05-03T15:24:03Z</time>
      </trkpt>
      <trkpt lat="47.35164" lon="-1.1055">
        <ele>17</ele>
        <time>2020-05-03T15:23:31Z</time>
      </trkpt>
      <trkpt lat="47.35177" lon="-1.10633">
        <ele>16</ele>
        <time>2020-05-03T15:23:17Z</time>
      </trkpt>
      <trkpt lat="47.35118" lon="-1.10741">
        <ele>18</ele>
        <time>2020-05-03T15:22:56Z</time>
      </trkpt>
      <trkpt lat="47.35093" lon="-1.10815">
        <ele>19</ele>
        <time>2020-05-03T15:22:42Z</time>
      </trkpt>
      <trkpt lat="47.35016" lon="-1.109">
        <ele>16</ele>
        <time>2020-05-03T15:22:20Z</time>
      </trkpt>
      <trkpt lat="47.35003" lon="-1.11027">
        <ele>18</ele>
        <time>2020-05-03T15:22:00Z</time>
      </trkpt>
      <trkpt lat="47.34979" lon="-1.11073">
        <ele>19</ele>
        <time>2020-05-03T15:21:51Z</time>
      </trkpt>
      <trkpt lat="47.35023" lon="-1.11147">
        <ele>17</ele>
        <time>2020-05-03T15:21:35Z</time>
      </trkpt>
      <trkpt lat="47.35042" lon="-1.11225">
        <ele>16</ele>
        <time>2020-05-03T15:21:22Z</time>
      </trkpt>
      <trkpt lat="47.3508" lon="-1.11349">
        <ele>16</ele>
        <time>2020-05-03T15:21:00Z</time>
      </trkpt>
      <trkpt lat="47.35184" lon="-1.11338">
        <ele>19</ele>
        <time>2020-05-03T15:20:36Z</time>
      </trkpt>
      <trkpt lat="47.3529" lon="-1.11337">
        <ele>21</ele>
        <time>2020-05-03T15:20:11Z</time>
      </trkpt>
      <trkpt lat="47.35395" lon="-1.11351">
        <ele>20</ele>
        <time>2020-05-03T15:19:47Z</time>
      </trkpt>
      <trkpt lat="47.3552" lon="-1.11555">
        <ele>19</ele>
        <time>2020-05-03T15:19:03Z</time>
      </trkpt>
      <trkpt lat="47.35542" lon="-1.11642">
        <ele>20</ele>
        <time>2020-05-03T15:18:48Z</time>
      </trkpt>
      <trkpt lat="47.35439" lon="-1.11658">
        <ele>21</ele>
        <time>2020-05-03T15:18:24Z</time>
      </trkpt>
      <trkpt lat="47.35438" lon="-1.11767">
        <ele>22</ele>
        <time>2020-05-03T15:18:07Z</time>
      </trkpt>
      <trkpt lat="47.35474" lon="-1.11771">
        <ele>21</ele>
        <time>2020-05-03T15:17:58Z</time>
      </trkpt>
      <trkpt lat="47.35482" lon="-1.12025">
        <ele>21</ele>
        <time>2020-05-03T15:17:18Z</time>
      </trkpt>
      <trkpt lat="47.35503" lon="-1.12188">
        <ele>19</ele>
        <time>2020-05-03T15:16:52Z</time>
      </trkpt>
      <trkpt lat="47.35528" lon="-1.12283">
        <ele>18</ele>
        <time>2020-05-03T15:16:36Z</time>
      </trkpt>
      <trkpt lat="47.35641" lon="-1.12131">
        <ele>12</ele>
        <time>2020-05-03T15:16:00Z</time>
      </trkpt>
      <trkpt lat="47.35677" lon="-1.12115">
        <ele>11</ele>
        <time>2020-05-03T15:15:51Z</time>
      </trkpt>
      <trkpt lat="47.35723" lon="-1.12191">
        <ele>8</ele>
        <time>2020-05-03T15:15:35Z</time>
      </trkpt>
      <trkpt lat="47.35698" lon="-1.1229">
        <ele>9</ele>
        <time>2020-05-03T15:15:19Z</time>
      </trkpt>
      <trkpt lat="47.3567" lon="-1.124">
        <ele>11</ele>
        <time>2020-05-03T15:15:00Z</time>
      </trkpt>
      <trkpt lat="47.35615" lon="-1.12551">
        <ele>10</ele>
        <time>2020-05-03T15:14:33Z</time>
      </trkpt>
      <trkpt lat="47.35599" lon="-1.12643">
        <ele>10</ele>
        <time>2020-05-03T15:14:18Z</time>
      </trkpt>
      <trkpt lat="47.35567" lon="-1.12749">
        <ele>9</ele>
        <time>2020-05-03T15:13:59Z</time>
      </trkpt>
      <trkpt lat="47.35583" lon="-1.12886">
        <ele>10</ele>
        <time>2020-05-03T15:13:37Z</time>
      </trkpt>
      <trkpt lat="47.35559" lon="-1.12962">
        <ele>9</ele>
        <time>2020-05-03T15:13:24Z</time>
      </trkpt>
      <trkpt lat="47.35558" lon="-1.12997">
        <ele>9</ele>
        <time>2020-05-03T15:13:19Z</time>
      </trkpt>
      <trkpt lat="47.3552" lon="-1.1315">
        <ele>10</ele>
        <time>2020-05-03T15:12:53Z</time>
      </trkpt>
      <trkpt lat="47.35476" lon="-1.13303">
        <ele>9</ele>
        <time>2020-05-03T15:12:27Z</time>
      </trkpt>
      <trkpt lat="47.35443" lon="-1.13424">
        <ele>10</ele>
        <time>2020-05-03T15:12:06Z</time>
      </trkpt>
      <trkpt lat="47.35418" lon="-1.135">
        <ele>10</ele>
        <time>2020-05-03T15:11:53Z</time>
      </trkpt>
      <trkpt lat="47.3537" lon="-1.13385">
        <ele>10</ele>
        <time>2020-05-03T15:11:31Z</time>
      </trkpt>
      <trkpt lat="47.35255" lon="-1.13234">
        <ele>9</ele>
        <time>2020-05-03T15:10:55Z</time>
      </trkpt>
      <trkpt lat="47.35172" lon="-1.13122">
        <ele>9</ele>
        <time>2020-05-03T15:10:29Z</time>
      </trkpt>
      <trkpt lat="47.35122" lon="-1.13106">
        <ele>11</ele>
        <time>2020-05-03T15:10:17Z</time>
      </trkpt>
      <trkpt lat="47.35104" lon="-1.13087">
        <ele>11</ele>
        <time>2020-05-03T15:10:12Z</time>
      </trkpt>
      <trkpt lat="47.35038" lon="-1.13061">
        <ele>13</ele>
        <time>2020-05-03T15:09:56Z</time>
      </trkpt>
      <trkpt lat="47.34779" lon="-1.13027">
        <ele>18</ele>
        <time>2020-05-03T15:08:55Z</time>
      </trkpt>
      <trkpt lat="47.34726" lon="-1.1304">
        <ele>20</ele>
        <time>2020-05-03T15:08:43Z</time>
      </trkpt>
      <trkpt lat="47.3465" lon="-1.13031">
        <ele>22</ele>
        <time>2020-05-03T15:08:25Z</time>
      </trkpt>
      <trkpt lat="47.34534" lon="-1.13085">
        <ele>24</ele>
        <time>2020-05-03T15:07:56Z</time>
      </trkpt>
      <trkpt lat="47.34537" lon="-1.13034">
        <ele>25</ele>
        <time>2020-05-03T15:07:48Z</time>
      </trkpt>
      <trkpt lat="47.34473" lon="-1.13026">
        <ele>27</ele>
        <time>2020-05-03T15:07:33Z</time>
      </trkpt>
      <trkpt lat="47.34461" lon="-1.13057">
        <ele>27</ele>
        <time>2020-05-03T15:07:28Z</time>
      </trkpt>
      <trkpt lat="47.34438" lon="-1.13069">
        <ele>27</ele>
        <time>2020-05-03T15:07:22Z</time>
      </trkpt>
      <trkpt lat="47.34421" lon="-1.13108">
        <ele>28</ele>
        <time>2020-05-03T15:07:15Z</time>
      </trkpt>
      <trkpt lat="47.34392" lon="-1.13137">
        <ele>29</ele>
        <time>2020-05-03T15:07:06Z</time>
      </trkpt>
      <trkpt lat="47.34333" lon="-1.13113">
        <ele>29</ele>
        <time>2020-05-03T15:06:52Z</time>
      </trkpt>
      <trkpt lat="47.34291" lon="-1.13129">
        <ele>29</ele>
        <time>2020-05-03T15:06:42Z</time>
      </trkpt>
      <trkpt lat="47.34212" lon="-1.13147">
        <ele>30</ele>
        <time>2020-05-03T15:06:23Z</time>
      </trkpt>
      <trkpt lat="47.34174" lon="-1.13176">
        <ele>32</ele>
        <time>2020-05-03T15:06:13Z</time>
      </trkpt>
      <trkpt lat="47.34131" lon="-1.13426">
        <ele>39</ele>
        <time>2020-05-03T15:05:33Z</time>
      </trkpt>
      <trkpt lat="47.34087" lon="-1.13374">
        <ele>42</ele>
        <time>2020-05-03T15:05:19Z</time>
      </trkpt>
      <trkpt lat="47.34013" lon="-1.13376">
        <ele>48</ele>
        <time>2020-05-03T15:05:02Z</time>
      </trkpt>
      <trkpt lat="47.33984" lon="-1.13599">
        <ele>56</ele>
        <time>2020-05-03T15:04:26Z</time>
      </trkpt>
      <trkpt lat="47.33975" lon="-1.13664">
        <ele>55</ele>
        <time>2020-05-03T15:04:16Z</time>
      </trkpt>
      <trkpt lat="47.3398" lon="-1.13738">
        <ele>55</ele>
        <time>2020-05-03T15:04:04Z</time>
      </trkpt>
      <trkpt lat="47.33955" lon="-1.13772">
        <ele>55</ele>
        <time>2020-05-03T15:03:56Z</time>
      </trkpt>
      <trkpt lat="47.33955" lon="-1.13772">
        <ele>55.1</ele>
        <time>2020-05-03T15:03:56Z</time>
      </trkpt>
      <trkpt lat="47.33955" lon="-1.13772">
        <ele>55.1</ele>
        <time>2020-05-03T15:03:56Z</time>
      </trkpt>
      <trkpt lat="47.33955" lon="-1.13772">
        <ele>55.1</ele>
        <time>2020-05-03T15:03:56Z</time>
      </trkpt>
      <trkpt lat="47.33925" lon="-1.13896">
        <ele>54.3</ele>
      </trkpt>
      <trkpt lat="47.33932" lon="-1.13923">
        <ele>53.8</ele>
      </trkpt>
      <trkpt lat="47.33903" lon="-1.13933">
        <ele>55.7</ele>
      </trkpt>
      <trkpt lat="47.33803" lon="-1.13994">
        <ele>60.1</ele>
      </trkpt>
      <trkpt lat="47.33579" lon="-1.1387">
        <ele>69</ele>
      </trkpt>
      <trkpt lat="47.33432" lon="-1.13735">
        <ele>71</ele>
      </trkpt>
      <trkpt lat="47.33355" lon="-1.13735">
        <ele>73.1</ele>
      </trkpt>
      <trkpt lat="47.33312" lon="-1.13719">
        <ele>74.5</ele>
      </trkpt>
      <trkpt lat="47.33105" lon="-1.13632">
        <ele>82.5</ele>
      </trkpt>
      <trkpt lat="47.33053" lon="-1.13648">
        <ele>83.8</ele>
      </trkpt>
      <trkpt lat="47.3301" lon="-1.13408">
        <ele>84.2</ele>
      </trkpt>
      <trkpt lat="47.33008" lon="-1.13239">
        <ele>84.9</ele>
      </trkpt>
      <trkpt lat="47.32994" lon="-1.13143">
        <ele>86</ele>
        <time>2020-05-03T15:51:13Z</time>
      </trkpt>
      <trkpt lat="47.32938" lon="-1.12922">
        <ele>84</ele>
        <time>2020-05-03T15:50:35Z</time>
      </trkpt>
      <trkpt lat="47.32882" lon="-1.12714">
        <ele>87</ele>
        <time>2020-05-03T15:50:00Z</time>
      </trkpt>
      <trkpt lat="47.32954" lon="-1.12745">
        <ele>85</ele>
        <time>2020-05-03T15:49:42Z</time>
      </trkpt>
      <trkpt lat="47.33046" lon="-1.12782">
        <ele>80</ele>
        <time>2020-05-03T15:49:20Z</time>
      </trkpt>
      <trkpt lat="47.33116" lon="-1.12781">
        <ele>78</ele>
        <time>2020-05-03T15:49:04Z</time>
      </trkpt>
      <trkpt lat="47.33221" lon="-1.12588">
        <ele>75</ele>
        <time>2020-05-03T15:48:24Z</time>
      </trkpt>
      <trkpt lat="47.33309" lon="-1.12392">
        <ele>75</ele>
        <time>2020-05-03T15:47:47Z</time>
      </trkpt>
      <trkpt lat="47.33347" lon="-1.12193">
        <ele>78</ele>
        <time>2020-05-03T15:47:15Z</time>
      </trkpt>
      <trkpt lat="47.33498" lon="-1.12335">
        <ele>70</ele>
        <time>2020-05-03T15:46:33Z</time>
      </trkpt>
      <trkpt lat="47.3349" lon="-1.12502">
        <ele>70</ele>
        <time>2020-05-03T15:46:06Z</time>
      </trkpt>
      <trkpt lat="47.33506" lon="-1.12523">
        <ele>70</ele>
        <time>2020-05-03T15:46:01Z</time>
      </trkpt>
      <trkpt lat="47.33586" lon="-1.12554">
        <ele>74</ele>
        <time>2020-05-03T15:45:42Z</time>
      </trkpt>
      <trkpt lat="47.3364" lon="-1.12732">
        <ele>69</ele>
        <time>2020-05-03T15:45:11Z</time>
      </trkpt>
      <trkpt lat="47.3373" lon="-1.12841">
        <ele>64</ele>
        <time>2020-05-03T15:44:44Z</time>
      </trkpt>
      <trkpt lat="47.33844" lon="-1.12981">
        <ele>60</ele>
        <time>2020-05-03T15:44:09Z</time>
      </trkpt>
      <trkpt lat="47.33879" lon="-1.12624">
        <ele>65</ele>
        <time>2020-05-03T15:43:12Z</time>
      </trkpt>
      <trkpt lat="47.339" lon="-1.12482">
        <ele>67</ele>
        <time>2020-05-03T15:42:49Z</time>
      </trkpt>
      <trkpt lat="47.33911" lon="-1.12375">
        <ele>68</ele>
        <time>2020-05-03T15:42:32Z</time>
      </trkpt>
      <trkpt lat="47.3388" lon="-1.12305">
        <ele>71</ele>
        <time>2020-05-03T15:42:19Z</time>
      </trkpt>
      <trkpt lat="47.33854" lon="-1.12153">
        <ele>70</ele>
        <time>2020-05-03T15:41:54Z</time>
      </trkpt>
      <trkpt lat="47.33851" lon="-1.11914">
        <ele>70</ele>
        <time>2020-05-03T15:41:16Z</time>
      </trkpt>
      <trkpt lat="47.33836" lon="-1.11806">
        <ele>71</ele>
        <time>2020-05-03T15:40:59Z</time>
      </trkpt>
      <trkpt lat="47.33796" lon="-1.11746">
        <ele>74</ele>
        <time>2020-05-03T15:40:45Z</time>
      </trkpt>
      <trkpt lat="47.33796" lon="-1.11689">
        <ele>75</ele>
        <time>2020-05-03T15:40:36Z</time>
      </trkpt>
      <trkpt lat="47.33768" lon="-1.11665">
        <ele>78</ele>
        <time>2020-05-03T15:40:29Z</time>
      </trkpt>
      <trkpt lat="47.33797" lon="-1.11507">
        <ele>78</ele>
        <time>2020-05-03T15:40:03Z</time>
      </trkpt>
      <trkpt lat="47.33808" lon="-1.11365">
        <ele>76</ele>
        <time>2020-05-03T15:39:40Z</time>
      </trkpt>
      <trkpt lat="47.33806" lon="-1.11245">
        <ele>74</ele>
        <time>2020-05-03T15:39:21Z</time>
      </trkpt>
      <trkpt lat="47.33826" lon="-1.11209">
        <ele>73</ele>
        <time>2020-05-03T15:39:14Z</time>
      </trkpt>
      <trkpt lat="47.33824" lon="-1.1117">
        <ele>74</ele>
        <time>2020-05-03T15:39:08Z</time>
      </trkpt>
      <trkpt lat="47.33812" lon="-1.11082">
        <ele>78</ele>
        <time>2020-05-03T15:38:54Z</time>
      </trkpt>
      <trkpt lat="47.33829" lon="-1.10974">
        <ele>79</ele>
        <time>2020-05-03T15:38:36Z</time>
      </trkpt>
    </trkseg>
  </trk>
</gpx>